Weather

DAILY 7 DAY TOTAL
onrain

Note: Some stations are located near irrigated fields and may also report irrigation

Alliston Mount Forest Blyth Guelph Grand Bend Strathroy Woodstock Belmont Simcoe Leamington Chatham West Lorne






Chatham WIN - Historical Weather Data
Date Max Temp (°C) Min Temp (°C) Avg Temp (°C) Rain (mm) 7Day Rain(mm) Total Rain(mm) Avg RH (%)
9/18/2017 25.2 17.1 20.0 0.0 0.2 341.0 93.5
9/17/2017 28.9 14.2 20.8 0.0 0.2 341.0 83.6
9/16/2017 27.3 13.5 20.0 0.2 0.2 341.0 84.2
9/15/2017 25.9 12.5 18.7 0.0 0.0 340.8 85.5
9/14/2017 24.1 13.6 18.7 0.0 0.0 340.8 86.8
9/13/2017 25.2 12.4 18.9 0.0 7.8 340.8 86.5
9/12/2017 24.3 8.1 15.7 0.0 10.8 340.8 83.6
9/11/2017 22.5 8.0 15.0 0.0 11.0 340.8 83.8
9/10/2017 20.2 4.9 12.7 0.0 20.2 340.8 85.4
9/9/2017 18.6 5.0 11.6 0.0 20.8 340.8 80.2
9/8/2017 17.1 7.6 12.7 0.0 26.0 340.8 87.0
9/7/2017 19.0 8.7 13.3 7.8 26.0 340.8 86.6
9/6/2017 18.3 8.1 13.4 3.0 18.2 333.0 83.2
9/5/2017 21.3 12.7 16.5 0.2 15.2 330.0 85.8
9/4/2017 27.1 14.2 20.2 9.2 24.4 329.8 83.2
9/3/2017 22.2 13.7 17.3 0.6 16.8 320.6 84.0
9/2/2017 19.8 10.0 14.7 5.2 16.2 320.0 84.6
9/1/2017 17.7 7.7 13.1 0.0 11.0 314.8 73.5
8/31/2017 20.0 11.0 16.7 0.0 11.0 314.8 84.3
8/30/2017 25.4 13.9 19.6 0.0 11.0 314.8 85.6
8/29/2017 22.0 15.3 18.6 9.4 11.0 314.8 96.1
8/28/2017 22.9 16.3 19.7 1.6 2.0 305.4 90.3
8/27/2017 23.4 10.3 17.2 0.0 0.4 303.8 85.2
8/26/2017 21.9 6.8 14.6 0.0 0.4 303.8 79.5
8/25/2017 21.8 8.2 14.8 0.0 0.4 303.8 80.8
8/24/2017 21.0 10.3 15.2 0.0 0.4 303.8 80.3
8/23/2017 23.1 12.5 18.2 0.0 19.6 303.8 76.3
8/22/2017 26.4 17.4 23.2 0.4 19.6 303.8 85.9
8/21/2017 29.9 17.9 24.0 0.0 19.2 303.4 86.5
8/20/2017 28.4 14.0 21.4 0.0 19.2 303.4 81.2
8/19/2017 24.7 15.7 20.3 0.0 19.4 303.4 80.2
8/18/2017 24.8 19.6 22.7 0.0 19.6 303.4 80.5
8/17/2017 26.1 17.7 22.2 19.2 50.2 303.4 95.5
8/16/2017 27.3 12.9 20.1 0.0 31.0 284.2 80.7
8/15/2017 26.5 15.3 21.4 0.0 31.0 284.2 86.7
8/14/2017 26.9 14.3 20.6 0.0 31.0 284.2 81.6
8/13/2017 25.6 11.4 18.7 0.2 31.0 284.2 80.7
8/12/2017 24.1 15.0 19.3 0.2 30.8 284.0 89.8
8/11/2017 26.1 16.7 21.3 30.6 30.6 283.8 91.8
8/10/2017 28.7 14.6 21.4 0.0 1.2 253.2 76.7
8/9/2017 28.7 14.3 21.4 0.0 3.0 253.2 74.1
8/8/2017 26.8 9.3 19.0 0.0 6.0 253.2 75.5
8/7/2017 25.3 13.6 19.4 0.0 6.0 253.2 84.1
8/6/2017 25.7 11.4 19.3 0.0 6.0 253.2 77.8
8/5/2017 23.5 14.8 18.7 0.0 6.0 253.2 68.7
8/4/2017 24.7 16.4 21.0 1.2 6.0 253.2 81.2
8/3/2017 28.7 16.7 22.5 1.8 4.8 252.0 87.0
8/2/2017 30.4 17.4 23.0 3.0 3.0 250.2 80.4
8/1/2017 30.2 15.5 23.4 0.0 0.0 247.2 72.7
7/31/2017 29.7 14.2 23.0 0.0 0.0 247.2 71.5
7/30/2017 28.2 14.0 21.3 0.0 0.2 247.2 77.4
7/29/2017 26.9 12.2 19.4 0.0 19.8 247.2 73.2
7/28/2017 24.5 14.3 19.2 0.0 30.4 247.2 87.3
7/27/2017 28.7 17.3 22.9 0.0 30.4 247.2 85.4
7/26/2017 26.4 13.9 20.6 0.0 30.4 247.2 82.8
7/25/2017 25.0 12.3 18.8 0.0 30.4 247.2 83.8
7/24/2017 20.3 15.3 18.3 0.2 30.4 247.2 88.7
7/23/2017 27.6 18.1 23.2 19.6 30.2 247.0 88.5
7/22/2017 28.1 21.9 24.5 10.6 11.2 227.4 90.2
7/21/2017 30.5 19.1 24.8 0.0 0.6 216.8 82.0
7/20/2017 30.9 19.3 25.4 0.0 0.6 216.8 78.6
7/19/2017 31.9 18.9 25.0 0.0 11.8 216.8 77.8
7/18/2017 28.3 13.7 21.7 0.0 15.0 216.8 80.7
7/17/2017 26.3 14.8 20.1 0.0 16.8 216.8 82.5
7/16/2017 27.5 16.7 21.4 0.6 21.8 216.8 85.2
7/15/2017 26.1 17.0 20.9 0.0 21.2 216.2 80.8
7/14/2017 26.4 18.2 23.0 0.0 21.2 216.2 80.8
7/13/2017 27.8 21.4 24.8 11.2 40.6 216.2 91.4
7/12/2017 28.5 21.1 24.8 3.2 29.4 205.0 89.7
7/11/2017 28.6 17.5 23.1 1.8 26.2 201.8 92.4
7/10/2017 22.8 17.8 20.5 5.0 24.4 200.0 89.3
7/9/2017 27.0 13.2 21.3 0.0 19.4 195.0 65.4
7/8/2017 23.6 15.8 20.2 0.0 19.4 195.0 79.7
7/7/2017 29.0 18.6 23.1 19.4 19.6 195.0 82.5
7/6/2017 29.2 14.6 22.5 0.0 12.4 175.6 71.2
7/5/2017 28.7 14.4 22.3 0.0 12.4 175.6 63.6
7/4/2017 26.6 12.8 20.6 0.0 12.4 175.6 69.4
7/3/2017 27.2 17.1 21.8 0.0 12.8 175.6 68.5
7/2/2017 28.8 17.5 23.5 0.0 13.2 175.6 68.1
7/1/2017 27.7 19.2 22.8 0.2 13.6 175.6 82.9
6/30/2017 29.0 18.6 22.5 12.2 13.4 175.4 90.1
6/29/2017 30.3 19.8 24.2 0.0 3.8 163.2 68.9
6/28/2017 24.5 12.1 19.6 0.0 5.4 163.2 63.1
6/27/2017 22.3 12.1 16.9 0.4 5.4 163.2 64.9
6/26/2017 22.0 12.3 17.1 0.4 8.6 162.8 65.8
6/25/2017 21.7 13.3 17.8 0.4 27.2 162.4 66.5
6/24/2017 25.6 17.7 21.2 0.0 29.8 162.0 66.2
6/23/2017 26.4 20.2 22.6 2.6 29.8 162.0 90.4
6/22/2017 29.4 14.7 22.2 1.6 32.6 159.4 81.9
6/21/2017 24.1 13.2 18.7 0.0 40.4 157.8 74.4
6/20/2017 25.4 14.5 18.5 3.6 40.4 157.8 77.1
6/19/2017 26.2 14.7 20.4 19.0 36.8 154.2 75.5
6/18/2017 28.3 21.3 25.1 3.0 17.8 135.2 73.4
6/17/2017 30.2 18.9 25.4 0.0 14.8 132.2 76.0
6/16/2017 30.3 17.5 23.3 5.4 14.8 132.2 80.9
6/15/2017 28.1 18.7 23.1 9.4 11.0 126.8 79.3
6/14/2017 27.1 19.3 22.8 0.0 1.6 117.4 69.9
6/13/2017 30.3 20.5 25.4 0.0 1.6 117.4 67.3
6/12/2017 32.9 21.0 27.1 0.0 1.6 117.4 58.6
6/11/2017 32.0 19.9 26.1 0.0 1.6 117.4 55.5
6/10/2017 30.6 14.0 23.4 0.0 2.8 117.4 65.5
6/9/2017 24.7 11.5 18.9 1.6 2.8 117.4 69.3
6/8/2017 23.1 8.8 17.1 0.0 1.2 115.8 65.0
6/7/2017 23.3 11.0 16.1 0.0 1.2 115.8 68.1
6/6/2017 19.0 11.5 15.3 0.0 1.4 115.8 78.1
6/5/2017 20.4 12.3 16.1 0.0 2.6 115.8 81.9
6/4/2017 29.2 17.8 22.1 1.2 5.4 115.8 71.1
6/3/2017 23.3 10.8 17.6 0.0 11.8 114.6 60.1
6/2/2017 22.0 11.4 16.5 0.0 11.8 114.6 63.3
6/1/2017 21.2 11.1 15.8 0.0 11.8 114.6 65.3
5/31/2017 23.0 12.0 18.0 0.2 35.4 114.6 62.4
5/30/2017 23.3 13.7 18.7 1.2 42.6 114.4 67.9
5/29/2017 25.6 14.6 19.2 2.8 41.4 113.2 77.0
5/28/2017 23.8 12.0 17.1 7.6 38.6 110.4 86.3
5/27/2017 21.9 11.8 16.9 0.0 38.6 102.8 82.9
5/26/2017 19.6 12.6 15.0 0.0 40.4 102.8 89.5
5/25/2017 14.8 13.2 13.9 23.6 40.4 102.8 99.8
5/24/2017 16.3 12.7 14.8 7.4 16.8 79.2 89.3
5/23/2017 23.1 12.4 17.9 0.0 9.4 71.8 65.3
5/22/2017 20.8 12.0 15.8 0.0 14.6 71.8 66.4
5/21/2017 22.5 12.7 17.0 7.6 14.6 71.8 92.5
5/20/2017 17.6 8.6 13.1 1.8 7.0 64.2 67.0
5/19/2017 20.6 7.5 10.9 0.0 5.2 62.4 76.3
5/18/2017 30.5 19.9 24.8 0.0 5.2 62.4 60.4
5/17/2017 29.7 16.8 23.0 0.0 7.0 62.4 67.1
5/16/2017 24.8 8.7 16.4 5.2 7.0 62.4 75.6
5/15/2017 21.2 3.0 12.5 0.0 1.8 57.2 66.0
5/14/2017 17.8 7.6 12.2 0.0 1.8 57.2 71.1
5/13/2017 20.6 4.1 12.6 0.0 1.8 57.2 77.7
5/12/2017 17.4 5.5 11.5 0.0 2.0 57.2 74.4
5/11/2017 17.3 7.8 11.9 1.8 15.6 57.2 67.8
5/10/2017 14.8 5.5 10.6 0.0 45.2 55.4 66.5
5/9/2017 13.1 0.0 8.1 0.0 45.2 55.4 58.1
5/8/2017 12.6 -1.0 6.4 0.0 46.0 55.4 63.6
5/7/2017 11.4 3.7 7.6 0.0 55.4 55.4 62.4
5/6/2017 9.5 6.2 7.6 0.2 72.6 55.4 86.4
5/5/2017 8.3 6.1 6.9 13.6 72.8 55.2 99.2
5/4/2017 8.5 6.9 7.6 31.4 59.2 41.6 92.3
5/3/2017 15.4 4.9 9.1 0.0 29.2 10.2 73.5
5/2/2017 10.5 7.1 9.1 0.8 29.2 10.2 81.3
5/1/2017 18.2 9.1 13.3 9.4 29.0 9.4 90.0